sensor_id;sensor_type;location;lat;lon;timestamp;P1;durP1;ratioP1;P2;durP2;ratioP2
31818;SDS011;18384;48.860;9.188;2023-04-25T00:00:31;2.92;;;1.80;;
31818;SDS011;18384;48.860;9.188;2023-04-25T00:02:57;3.20;;;1.90;;
31818;SDS011;18384;48.860;9.188;2023-04-25T00:05:24;4.97;;;2.05;;
31818;SDS011;18384;48.860;9.188;2023-04-25T00:07:55;3.53;;;1.85;;
31818;SDS011;18384;48.860;9.188;2023-04-25T00:10:23;2.90;;;1.73;;
31818;SDS011;18384;48.860;9.188;2023-04-25T00:12:49;5.43;;;1.92;;
31818;SDS011;18384;48.860;9.188;2023-04-25T00:15:15;4.55;;;2.05;;
31818;SDS011;18384;48.860;9.188;2023-04-25T00:17:41;4.03;;;2.15;;
31818;SDS011;18384;48.860;9.188;2023-04-25T00:20:08;3.03;;;1.92;;
31818;SDS011;18384;48.860;9.188;2023-04-25T00:22:35;4.97;;;1.70;;
31818;SDS011;18384;48.860;9.188;2023-04-25T00:25:03;4.40;;;2.00;;
31818;SDS011;18384;48.860;9.188;2023-04-25T00:27:31;3.35;;;1.67;;
31818;SDS011;18384;48.860;9.188;2023-04-25T00:29:57;5.35;;;1.70;;
31818;SDS011;18384;48.860;9.188;2023-04-25T00:32:23;4.57;;;1.83;;
31818;SDS011;18384;48.860;9.188;2023-04-25T00:34:50;3.37;;;1.87;;
31818;SDS011;18384;48.860;9.188;2023-04-25T00:37:16;6.70;;;1.90;;
31818;SDS011;18384;48.860;9.188;2023-04-25T00:39:43;3.42;;;1.90;;
31818;SDS011;18384;48.860;9.188;2023-04-25T00:42:09;4.12;;;2.00;;
31818;SDS011;18384;48.860;9.188;2023-04-25T00:44:36;3.95;;;1.70;;
31818;SDS011;18384;48.860;9.188;2023-04-25T00:47:03;6.62;;;1.80;;
31818;SDS011;18384;48.860;9.188;2023-04-25T00:49:29;4.62;;;1.70;;
31818;SDS011;18384;48.860;9.188;2023-04-25T00:51:56;2.47;;;1.60;;
31818;SDS011;18384;48.860;9.188;2023-04-25T00:54:22;3.12;;;1.83;;
31818;SDS011;18384;48.860;9.188;2023-04-25T00:56:48;6.97;;;2.15;;
31818;SDS011;18384;48.860;9.188;2023-04-25T00:59:14;6.18;;;1.95;;
31818;SDS011;18384;48.860;9.188;2023-04-25T01:01:41;2.70;;;1.50;;
31818;SDS011;18384;48.860;9.188;2023-04-25T01:04:07;6.03;;;1.60;;
31818;SDS011;18384;48.860;9.188;2023-04-25T01:06:33;4.62;;;1.65;;
31818;SDS011;18384;48.860;9.188;2023-04-25T01:09:00;5.12;;;1.85;;
31818;SDS011;18384;48.860;9.188;2023-04-25T01:11:28;3.85;;;1.55;;
31818;SDS011;18384;48.860;9.188;2023-04-25T01:13:54;4.68;;;1.80;;
31818;SDS011;18384;48.860;9.188;2023-04-25T01:16:21;3.55;;;1.75;;
31818;SDS011;18384;48.860;9.188;2023-04-25T01:18:49;3.53;;;1.75;;
31818;SDS011;18384;48.860;9.188;2023-04-25T01:21:16;3.22;;;1.70;;
31818;SDS011;18384;48.860;9.188;2023-04-25T01:23:42;2.55;;;1.62;;
31818;SDS011;18384;48.860;9.188;2023-04-25T01:26:09;5.35;;;1.80;;
31818;SDS011;18384;48.860;9.188;2023-04-25T01:28:37;4.40;;;1.80;;
31818;SDS011;18384;48.860;9.188;2023-04-25T01:31:07;4.82;;;1.60;;
31818;SDS011;18384;48.860;9.188;2023-04-25T01:33:34;3.55;;;1.75;;
31818;SDS011;18384;48.860;9.188;2023-04-25T01:36:00;3.05;;;1.52;;
31818;SDS011;18384;48.860;9.188;2023-04-25T01:38:26;3.72;;;1.70;;
31818;SDS011;18384;48.860;9.188;2023-04-25T01:40:52;6.60;;;1.98;;
31818;SDS011;18384;48.860;9.188;2023-04-25T01:43:20;5.47;;;1.70;;
31818;SDS011;18384;48.860;9.188;2023-04-25T01:45:46;3.47;;;1.87;;
31818;SDS011;18384;48.860;9.188;2023-04-25T01:48:13;3.72;;;1.85;;
31818;SDS011;18384;48.860;9.188;2023-04-25T01:50:40;3.17;;;1.77;;
31818;SDS011;18384;48.860;9.188;2023-04-25T01:53:06;3.15;;;1.80;;
31818;SDS011;18384;48.860;9.188;2023-04-25T01:55:36;4.07;;;1.67;;
31818;SDS011;18384;48.860;9.188;2023-04-25T01:58:02;4.35;;;2.20;;
31818;SDS011;18384;48.860;9.188;2023-04-25T02:00:29;4.30;;;1.70;;
31818;SDS011;18384;48.860;9.188;2023-04-25T02:02:57;5.12;;;2.08;;
31818;SDS011;18384;48.860;9.188;2023-04-25T02:05:24;6.43;;;1.98;;
31818;SDS011;18384;48.860;9.188;2023-04-25T02:07:50;3.72;;;1.77;;
31818;SDS011;18384;48.860;9.188;2023-04-25T02:10:16;4.45;;;1.90;;
31818;SDS011;18384;48.860;9.188;2023-04-25T02:12:42;11.90;;;2.00;;
31818;SDS011;18384;48.860;9.188;2023-04-25T02:15:08;4.85;;;1.67;;
31818;SDS011;18384;48.860;9.188;2023-04-25T02:17:35;3.47;;;1.92;;
31818;SDS011;18384;48.860;9.188;2023-04-25T02:20:01;8.23;;;2.20;;
31818;SDS011;18384;48.860;9.188;2023-04-25T02:24:55;3.83;;;2.12;;
31818;SDS011;18384;48.860;9.188;2023-04-25T02:27:21;4.87;;;2.22;;
31818;SDS011;18384;48.860;9.188;2023-04-25T02:29:47;5.07;;;2.33;;
31818;SDS011;18384;48.860;9.188;2023-04-25T02:32:13;6.10;;;2.03;;
31818;SDS011;18384;48.860;9.188;2023-04-25T02:34:39;3.97;;;2.17;;
31818;SDS011;18384;48.860;9.188;2023-04-25T02:37:06;3.78;;;2.12;;
31818;SDS011;18384;48.860;9.188;2023-04-25T02:39:32;5.55;;;2.37;;
31818;SDS011;18384;48.860;9.188;2023-04-25T02:41:58;4.32;;;2.03;;
31818;SDS011;18384;48.860;9.188;2023-04-25T02:44:24;12.90;;;2.22;;
31818;SDS011;18384;48.860;9.188;2023-04-25T02:46:50;6.20;;;1.77;;
31818;SDS011;18384;48.860;9.188;2023-04-25T02:49:16;4.65;;;2.00;;
31818;SDS011;18384;48.860;9.188;2023-04-25T02:51:42;4.20;;;2.30;;
31818;SDS011;18384;48.860;9.188;2023-04-25T02:54:08;5.30;;;2.00;;
31818;SDS011;18384;48.860;9.188;2023-04-25T02:56:34;2.80;;;1.90;;
31818;SDS011;18384;48.860;9.188;2023-04-25T02:59:01;5.75;;;2.20;;
31818;SDS011;18384;48.860;9.188;2023-04-25T03:01:27;4.37;;;2.78;;
31818;SDS011;18384;48.860;9.188;2023-04-25T03:03:53;4.12;;;2.12;;
31818;SDS011;18384;48.860;9.188;2023-04-25T03:06:19;6.75;;;2.40;;
31818;SDS011;18384;48.860;9.188;2023-04-25T03:08:45;5.65;;;2.25;;
31818;SDS011;18384;48.860;9.188;2023-04-25T03:11:11;4.05;;;2.00;;
31818;SDS011;18384;48.860;9.188;2023-04-25T03:13:37;6.10;;;2.42;;
31818;SDS011;18384;48.860;9.188;2023-04-25T03:16:03;3.78;;;2.12;;
31818;SDS011;18384;48.860;9.188;2023-04-25T03:18:30;6.78;;;2.30;;
31818;SDS011;18384;48.860;9.188;2023-04-25T03:20:56;6.75;;;2.20;;
31818;SDS011;18384;48.860;9.188;2023-04-25T03:25:49;3.05;;;2.12;;
31818;SDS011;18384;48.860;9.188;2023-04-25T03:28:15;3.65;;;2.20;;
31818;SDS011;18384;48.860;9.188;2023-04-25T03:30:41;6.57;;;2.40;;
31818;SDS011;18384;48.860;9.188;2023-04-25T03:35:33;4.62;;;2.33;;
31818;SDS011;18384;48.860;9.188;2023-04-25T03:37:59;8.93;;;2.30;;
31818;SDS011;18384;48.860;9.188;2023-04-25T03:40:25;5.68;;;2.42;;
31818;SDS011;18384;48.860;9.188;2023-04-25T03:42:52;5.37;;;2.37;;
31818;SDS011;18384;48.860;9.188;2023-04-25T03:45:18;4.05;;;2.17;;
31818;SDS011;18384;48.860;9.188;2023-04-25T03:47:44;9.65;;;2.70;;
31818;SDS011;18384;48.860;9.188;2023-04-25T03:50:10;5.47;;;2.40;;
31818;SDS011;18384;48.860;9.188;2023-04-25T03:52:36;3.72;;;2.50;;
31818;SDS011;18384;48.860;9.188;2023-04-25T03:55:02;3.95;;;2.25;;
31818;SDS011;18384;48.860;9.188;2023-04-25T03:57:29;4.07;;;2.40;;
31818;SDS011;18384;48.860;9.188;2023-04-25T03:59:55;3.90;;;2.40;;
31818;SDS011;18384;48.860;9.188;2023-04-25T04:02:22;4.60;;;2.62;;
31818;SDS011;18384;48.860;9.188;2023-04-25T04:04:48;5.72;;;2.47;;
31818;SDS011;18384;48.860;9.188;2023-04-25T04:07:14;6.18;;;2.95;;
31818;SDS011;18384;48.860;9.188;2023-04-25T04:09:40;5.85;;;3.10;;
31818;SDS011;18384;48.860;9.188;2023-04-25T04:12:06;3.40;;;2.60;;
31818;SDS011;18384;48.860;9.188;2023-04-25T04:14:32;5.57;;;2.80;;
31818;SDS011;18384;48.860;9.188;2023-04-25T04:16:58;7.50;;;2.60;;
31818;SDS011;18384;48.860;9.188;2023-04-25T04:19:25;6.28;;;3.15;;
31818;SDS011;18384;48.860;9.188;2023-04-25T04:21:51;5.12;;;3.40;;
31818;SDS011;18384;48.860;9.188;2023-04-25T04:24:17;6.05;;;3.25;;
31818;SDS011;18384;48.860;9.188;2023-04-25T04:26:43;5.07;;;3.30;;
31818;SDS011;18384;48.860;9.188;2023-04-25T04:31:36;9.25;;;3.37;;
31818;SDS011;18384;48.860;9.188;2023-04-25T04:34:02;6.20;;;3.58;;
31818;SDS011;18384;48.860;9.188;2023-04-25T04:36:29;11.70;;;3.60;;
31818;SDS011;18384;48.860;9.188;2023-04-25T04:38:56;5.93;;;3.45;;
31818;SDS011;18384;48.860;9.188;2023-04-25T04:41:22;9.43;;;3.30;;
31818;SDS011;18384;48.860;9.188;2023-04-25T04:43:49;5.47;;;2.90;;
31818;SDS011;18384;48.860;9.188;2023-04-25T04:46:15;7.03;;;2.97;;
31818;SDS011;18384;48.860;9.188;2023-04-25T04:48:41;5.28;;;3.20;;
31818;SDS011;18384;48.860;9.188;2023-04-25T04:51:07;5.90;;;3.28;;
31818;SDS011;18384;48.860;9.188;2023-04-25T04:53:33;4.07;;;3.10;;
31818;SDS011;18384;48.860;9.188;2023-04-25T04:55:59;10.82;;;3.40;;
31818;SDS011;18384;48.860;9.188;2023-04-25T04:58:26;5.28;;;3.53;;
31818;SDS011;18384;48.860;9.188;2023-04-25T05:00:54;10.07;;;3.20;;
31818;SDS011;18384;48.860;9.188;2023-04-25T05:03:20;4.85;;;3.30;;
31818;SDS011;18384;48.860;9.188;2023-04-25T05:05:46;4.12;;;2.90;;
31818;SDS011;18384;48.860;9.188;2023-04-25T05:08:12;6.62;;;3.15;;
31818;SDS011;18384;48.860;9.188;2023-04-25T05:10:38;8.35;;;4.00;;
31818;SDS011;18384;48.860;9.188;2023-04-25T05:13:05;5.60;;;3.60;;
31818;SDS011;18384;48.860;9.188;2023-04-25T05:15:31;5.25;;;3.17;;
31818;SDS011;18384;48.860;9.188;2023-04-25T05:17:57;4.28;;;2.90;;
31818;SDS011;18384;48.860;9.188;2023-04-25T05:20:23;7.10;;;3.33;;
31818;SDS011;18384;48.860;9.188;2023-04-25T05:22:49;6.90;;;3.58;;
31818;SDS011;18384;48.860;9.188;2023-04-25T05:25:15;7.00;;;3.50;;
31818;SDS011;18384;48.860;9.188;2023-04-25T05:27:42;6.18;;;2.75;;
31818;SDS011;18384;48.860;9.188;2023-04-25T05:30:08;5.50;;;2.95;;
31818;SDS011;18384;48.860;9.188;2023-04-25T05:32:34;7.70;;;2.92;;
31818;SDS011;18384;48.860;9.188;2023-04-25T05:35:01;3.90;;;2.70;;
31818;SDS011;18384;48.860;9.188;2023-04-25T05:37:27;6.47;;;3.12;;
31818;SDS011;18384;48.860;9.188;2023-04-25T05:39:56;5.15;;;3.05;;
31818;SDS011;18384;48.860;9.188;2023-04-25T05:42:22;7.28;;;4.12;;
31818;SDS011;18384;48.860;9.188;2023-04-25T05:44:48;7.78;;;3.53;;
31818;SDS011;18384;48.860;9.188;2023-04-25T05:47:14;6.20;;;3.80;;
31818;SDS011;18384;48.860;9.188;2023-04-25T05:49:40;9.05;;;3.53;;
31818;SDS011;18384;48.860;9.188;2023-04-25T05:52:06;8.13;;;3.70;;
31818;SDS011;18384;48.860;9.188;2023-04-25T05:54:32;5.57;;;3.53;;
31818;SDS011;18384;48.860;9.188;2023-04-25T05:56:58;6.07;;;3.08;;
31818;SDS011;18384;48.860;9.188;2023-04-25T05:59:24;6.90;;;3.12;;
31818;SDS011;18384;48.860;9.188;2023-04-25T06:01:51;4.50;;;3.05;;
31818;SDS011;18384;48.860;9.188;2023-04-25T06:04:17;6.03;;;3.70;;
31818;SDS011;18384;48.860;9.188;2023-04-25T06:06:43;8.30;;;3.20;;
31818;SDS011;18384;48.860;9.188;2023-04-25T06:09:09;5.30;;;2.90;;
31818;SDS011;18384;48.860;9.188;2023-04-25T06:11:35;5.70;;;3.25;;
31818;SDS011;18384;48.860;9.188;2023-04-25T06:14:01;4.60;;;3.10;;
31818;SDS011;18384;48.860;9.188;2023-04-25T06:16:27;4.78;;;2.72;;
31818;SDS011;18384;48.860;9.188;2023-04-25T06:18:53;7.55;;;2.85;;
31818;SDS011;18384;48.860;9.188;2023-04-25T06:21:20;7.62;;;2.95;;
31818;SDS011;18384;48.860;9.188;2023-04-25T06:23:46;9.27;;;3.00;;
31818;SDS011;18384;48.860;9.188;2023-04-25T06:26:12;7.60;;;3.30;;
31818;SDS011;18384;48.860;9.188;2023-04-25T06:28:38;4.70;;;3.30;;
31818;SDS011;18384;48.860;9.188;2023-04-25T06:31:04;4.85;;;3.37;;
31818;SDS011;18384;48.860;9.188;2023-04-25T06:33:30;7.85;;;4.07;;
31818;SDS011;18384;48.860;9.188;2023-04-25T06:35:56;8.45;;;3.62;;
31818;SDS011;18384;48.860;9.188;2023-04-25T06:38:22;4.82;;;3.00;;
31818;SDS011;18384;48.860;9.188;2023-04-25T06:40:49;5.37;;;3.30;;
31818;SDS011;18384;48.860;9.188;2023-04-25T06:43:15;5.62;;;2.80;;
31818;SDS011;18384;48.860;9.188;2023-04-25T06:45:41;5.40;;;2.95;;
31818;SDS011;18384;48.860;9.188;2023-04-25T06:48:07;4.40;;;2.70;;
31818;SDS011;18384;48.860;9.188;2023-04-25T06:50:33;4.93;;;2.85;;
31818;SDS011;18384;48.860;9.188;2023-04-25T06:52:59;4.55;;;3.00;;
31818;SDS011;18384;48.860;9.188;2023-04-25T06:55:26;4.28;;;2.90;;
31818;SDS011;18384;48.860;9.188;2023-04-25T07:00:19;4.40;;;2.60;;
31818;SDS011;18384;48.860;9.188;2023-04-25T07:02:45;7.25;;;3.35;;
31818;SDS011;18384;48.860;9.188;2023-04-25T07:05:11;4.62;;;3.40;;
31818;SDS011;18384;48.860;9.188;2023-04-25T07:07:38;6.50;;;4.32;;
31818;SDS011;18384;48.860;9.188;2023-04-25T07:10:04;5.78;;;3.70;;
31818;SDS011;18384;48.860;9.188;2023-04-25T07:12:30;7.50;;;3.72;;
31818;SDS011;18384;48.860;9.188;2023-04-25T07:14:57;8.32;;;4.07;;
31818;SDS011;18384;48.860;9.188;2023-04-25T07:17:23;6.18;;;3.47;;
31818;SDS011;18384;48.860;9.188;2023-04-25T07:19:49;5.43;;;3.50;;
31818;SDS011;18384;48.860;9.188;2023-04-25T07:22:15;8.80;;;3.78;;
31818;SDS011;18384;48.860;9.188;2023-04-25T07:24:41;5.60;;;3.47;;
31818;SDS011;18384;48.860;9.188;2023-04-25T07:27:07;8.13;;;3.87;;
31818;SDS011;18384;48.860;9.188;2023-04-25T07:29:33;4.57;;;3.28;;
31818;SDS011;18384;48.860;9.188;2023-04-25T07:32:02;5.10;;;3.50;;
31818;SDS011;18384;48.860;9.188;2023-04-25T07:36:55;7.53;;;3.85;;
31818;SDS011;18384;48.860;9.188;2023-04-25T07:39:21;7.43;;;4.03;;
31818;SDS011;18384;48.860;9.188;2023-04-25T07:41:48;6.03;;;3.97;;
31818;SDS011;18384;48.860;9.188;2023-04-25T07:44:14;5.72;;;4.15;;
31818;SDS011;18384;48.860;9.188;2023-04-25T07:46:40;8.70;;;3.90;;
31818;SDS011;18384;48.860;9.188;2023-04-25T07:49:06;8.70;;;4.37;;
31818;SDS011;18384;48.860;9.188;2023-04-25T07:53:58;7.80;;;4.30;;
31818;SDS011;18384;48.860;9.188;2023-04-25T07:56:25;8.00;;;4.03;;
31818;SDS011;18384;48.860;9.188;2023-04-25T07:58:51;7.00;;;4.05;;
31818;SDS011;18384;48.860;9.188;2023-04-25T08:01:17;7.32;;;4.70;;
31818;SDS011;18384;48.860;9.188;2023-04-25T08:03:46;13.40;;;4.57;;
31818;SDS011;18384;48.860;9.188;2023-04-25T08:06:12;8.77;;;4.22;;
31818;SDS011;18384;48.860;9.188;2023-04-25T08:08:38;6.72;;;4.37;;
31818;SDS011;18384;48.860;9.188;2023-04-25T08:11:04;6.22;;;4.30;;
31818;SDS011;18384;48.860;9.188;2023-04-25T08:13:31;6.18;;;4.10;;
31818;SDS011;18384;48.860;9.188;2023-04-25T08:15:57;6.18;;;4.20;;
31818;SDS011;18384;48.860;9.188;2023-04-25T08:18:23;19.67;;;4.85;;
31818;SDS011;18384;48.860;9.188;2023-04-25T08:20:49;11.12;;;4.43;;
31818;SDS011;18384;48.860;9.188;2023-04-25T08:23:15;12.25;;;4.18;;
31818;SDS011;18384;48.860;9.188;2023-04-25T08:25:41;8.48;;;4.60;;
31818;SDS011;18384;48.860;9.188;2023-04-25T08:28:07;7.53;;;3.97;;
31818;SDS011;18384;48.860;9.188;2023-04-25T08:30:33;6.35;;;3.70;;
31818;SDS011;18384;48.860;9.188;2023-04-25T08:33:00;5.75;;;3.95;;
31818;SDS011;18384;48.860;9.188;2023-04-25T08:35:26;5.62;;;3.78;;
31818;SDS011;18384;48.860;9.188;2023-04-25T08:37:52;6.03;;;3.58;;
31818;SDS011;18384;48.860;9.188;2023-04-25T08:40:18;5.18;;;3.60;;
31818;SDS011;18384;48.860;9.188;2023-04-25T08:42:51;6.28;;;3.80;;
31818;SDS011;18384;48.860;9.188;2023-04-25T08:45:19;8.88;;;3.60;;
31818;SDS011;18384;48.860;9.188;2023-04-25T08:47:45;5.45;;;3.50;;
31818;SDS011;18384;48.860;9.188;2023-04-25T08:50:13;5.40;;;3.60;;
31818;SDS011;18384;48.860;9.188;2023-04-25T08:52:43;9.35;;;3.83;;
31818;SDS011;18384;48.860;9.188;2023-04-25T08:55:11;5.65;;;3.12;;
31818;SDS011;18384;48.860;9.188;2023-04-25T08:57:39;7.12;;;3.78;;
31818;SDS011;18384;48.860;9.188;2023-04-25T09:00:08;7.18;;;4.07;;
31818;SDS011;18384;48.860;9.188;2023-04-25T09:02:37;6.45;;;3.67;;
31818;SDS011;18384;48.860;9.188;2023-04-25T09:05:05;10.93;;;3.55;;
31818;SDS011;18384;48.860;9.188;2023-04-25T09:07:32;7.85;;;4.18;;
31818;SDS011;18384;48.860;9.188;2023-04-25T09:09:58;7.55;;;4.53;;
31818;SDS011;18384;48.860;9.188;2023-04-25T09:12:28;8.70;;;4.85;;
31818;SDS011;18384;48.860;9.188;2023-04-25T09:15:03;7.40;;;5.65;;
31818;SDS011;18384;48.860;9.188;2023-04-25T09:17:37;10.73;;;6.22;;
31818;SDS011;18384;48.860;9.188;2023-04-25T09:20:13;10.85;;;6.75;;
31818;SDS011;18384;48.860;9.188;2023-04-25T09:22:40;6.70;;;5.18;;
31818;SDS011;18384;48.860;9.188;2023-04-25T09:25:08;7.78;;;5.65;;
31818;SDS011;18384;48.860;9.188;2023-04-25T09:27:36;10.32;;;6.20;;
31818;SDS011;18384;48.860;9.188;2023-04-25T09:30:29;7.70;;;5.47;;
31818;SDS011;18384;48.860;9.188;2023-04-25T09:32:57;8.77;;;5.70;;
31818;SDS011;18384;48.860;9.188;2023-04-25T09:35:32;6.78;;;4.50;;
31818;SDS011;18384;48.860;9.188;2023-04-25T09:38:13;6.60;;;4.30;;
31818;SDS011;18384;48.860;9.188;2023-04-25T09:40:46;7.37;;;3.85;;
31818;SDS011;18384;48.860;9.188;2023-04-25T09:43:20;5.18;;;3.87;;
31818;SDS011;18384;48.860;9.188;2023-04-25T09:45:48;6.28;;;4.07;;
31818;SDS011;18384;48.860;9.188;2023-04-25T09:48:20;6.35;;;4.10;;
31818;SDS011;18384;48.860;9.188;2023-04-25T09:51:03;6.50;;;4.82;;
31818;SDS011;18384;48.860;9.188;2023-04-25T09:53:47;10.32;;;4.55;;
31818;SDS011;18384;48.860;9.188;2023-04-25T09:56:15;8.27;;;4.68;;
31818;SDS011;18384;48.860;9.188;2023-04-25T09:58:41;6.53;;;4.35;;
31818;SDS011;18384;48.860;9.188;2023-04-25T10:01:08;8.90;;;4.37;;
31818;SDS011;18384;48.860;9.188;2023-04-25T10:03:36;6.57;;;4.55;;
31818;SDS011;18384;48.860;9.188;2023-04-25T10:06:07;6.35;;;4.97;;
31818;SDS011;18384;48.860;9.188;2023-04-25T10:08:37;6.00;;;4.68;;
31818;SDS011;18384;48.860;9.188;2023-04-25T10:11:05;6.45;;;4.65;;
31818;SDS011;18384;48.860;9.188;2023-04-25T10:13:33;7.00;;;4.90;;
31818;SDS011;18384;48.860;9.188;2023-04-25T10:16:01;6.75;;;4.62;;
31818;SDS011;18384;48.860;9.188;2023-04-25T10:18:30;5.78;;;4.12;;
31818;SDS011;18384;48.860;9.188;2023-04-25T10:21:01;7.18;;;3.55;;
31818;SDS011;18384;48.860;9.188;2023-04-25T10:23:30;7.07;;;3.85;;
31818;SDS011;18384;48.860;9.188;2023-04-25T10:25:57;10.73;;;5.85;;
31818;SDS011;18384;48.860;9.188;2023-04-25T10:28:24;8.05;;;4.70;;
31818;SDS011;18384;48.860;9.188;2023-04-25T10:30:57;6.62;;;4.72;;
31818;SDS011;18384;48.860;9.188;2023-04-25T10:33:37;5.57;;;3.22;;
31818;SDS011;18384;48.860;9.188;2023-04-25T10:36:10;6.95;;;4.20;;
31818;SDS011;18384;48.860;9.188;2023-04-25T10:38:56;7.28;;;3.78;;
31818;SDS011;18384;48.860;9.188;2023-04-25T10:41:31;6.35;;;3.78;;
31818;SDS011;18384;48.860;9.188;2023-04-25T10:44:13;8.05;;;4.00;;
31818;SDS011;18384;48.860;9.188;2023-04-25T10:46:40;7.93;;;4.40;;
31818;SDS011;18384;48.860;9.188;2023-04-25T10:49:06;6.80;;;4.03;;
31818;SDS011;18384;48.860;9.188;2023-04-25T10:51:35;7.43;;;4.40;;
31818;SDS011;18384;48.860;9.188;2023-04-25T10:54:03;12.15;;;4.82;;
31818;SDS011;18384;48.860;9.188;2023-04-25T10:56:31;5.90;;;4.12;;
31818;SDS011;18384;48.860;9.188;2023-04-25T10:59:12;10.32;;;5.55;;
31818;SDS011;18384;48.860;9.188;2023-04-25T11:01:42;7.53;;;4.47;;
31818;SDS011;18384;48.860;9.188;2023-04-25T11:04:46;6.47;;;4.40;;
31818;SDS011;18384;48.860;9.188;2023-04-25T11:10:17;6.05;;;4.22;;
31818;SDS011;18384;48.860;9.188;2023-04-25T11:12:45;6.80;;;4.22;;
31818;SDS011;18384;48.860;9.188;2023-04-25T11:15:12;7.78;;;3.72;;
31818;SDS011;18384;48.860;9.188;2023-04-25T11:17:39;6.53;;;3.62;;
31818;SDS011;18384;48.860;9.188;2023-04-25T11:20:06;7.57;;;4.05;;
31818;SDS011;18384;48.860;9.188;2023-04-25T11:22:37;5.68;;;3.42;;
31818;SDS011;18384;48.860;9.188;2023-04-25T11:25:07;5.25;;;3.30;;
31818;SDS011;18384;48.860;9.188;2023-04-25T11:27:37;7.68;;;3.53;;
31818;SDS011;18384;48.860;9.188;2023-04-25T11:30:18;5.68;;;3.53;;
31818;SDS011;18384;48.860;9.188;2023-04-25T11:32:45;6.00;;;3.67;;
31818;SDS011;18384;48.860;9.188;2023-04-25T11:37:42;6.60;;;3.90;;
31818;SDS011;18384;48.860;9.188;2023-04-25T11:40:09;5.60;;;3.08;;
31818;SDS011;18384;48.860;9.188;2023-04-25T11:42:37;4.50;;;3.05;;
31818;SDS011;18384;48.860;9.188;2023-04-25T11:45:04;5.82;;;3.37;;
31818;SDS011;18384;48.860;9.188;2023-04-25T11:47:31;5.80;;;3.58;;
31818;SDS011;18384;48.860;9.188;2023-04-25T11:49:59;6.53;;;3.60;;
31818;SDS011;18384;48.860;9.188;2023-04-25T11:52:39;8.45;;;3.05;;
31818;SDS011;18384;48.860;9.188;2023-04-25T11:55:14;5.68;;;3.42;;
31818;SDS011;18384;48.860;9.188;2023-04-25T11:57:43;6.37;;;3.53;;
31818;SDS011;18384;48.860;9.188;2023-04-25T12:00:19;7.85;;;3.67;;
31818;SDS011;18384;48.860;9.188;2023-04-25T12:02:51;4.20;;;3.03;;
31818;SDS011;18384;48.860;9.188;2023-04-25T12:05:19;6.25;;;3.20;;
31818;SDS011;18384;48.860;9.188;2023-04-25T12:07:48;5.18;;;3.12;;
31818;SDS011;18384;48.860;9.188;2023-04-25T12:10:15;5.45;;;3.45;;
31818;SDS011;18384;48.860;9.188;2023-04-25T12:12:44;4.87;;;3.40;;
31818;SDS011;18384;48.860;9.188;2023-04-25T12:15:18;10.95;;;3.65;;
31818;SDS011;18384;48.860;9.188;2023-04-25T12:17:50;6.62;;;3.45;;
31818;SDS011;18384;48.860;9.188;2023-04-25T12:20:18;7.65;;;3.95;;
31818;SDS011;18384;48.860;9.188;2023-04-25T12:22:48;5.85;;;3.75;;
31818;SDS011;18384;48.860;9.188;2023-04-25T12:25:34;8.65;;;4.35;;
31818;SDS011;18384;48.860;9.188;2023-04-25T12:28:18;5.95;;;3.80;;
31818;SDS011;18384;48.860;9.188;2023-04-25T12:34:17;9.98;;;6.20;;
31818;SDS011;18384;48.860;9.188;2023-04-25T12:36:44;9.43;;;5.00;;
31818;SDS011;18384;48.860;9.188;2023-04-25T12:39:17;13.43;;;5.20;;
31818;SDS011;18384;48.860;9.188;2023-04-25T12:41:45;8.05;;;4.70;;
31818;SDS011;18384;48.860;9.188;2023-04-25T12:44:12;9.55;;;5.50;;
31818;SDS011;18384;48.860;9.188;2023-04-25T12:46:38;9.85;;;5.10;;
31818;SDS011;18384;48.860;9.188;2023-04-25T12:49:05;8.88;;;4.93;;
31818;SDS011;18384;48.860;9.188;2023-04-25T12:51:35;11.82;;;5.45;;
31818;SDS011;18384;48.860;9.188;2023-04-25T12:54:02;9.20;;;5.30;;
31818;SDS011;18384;48.860;9.188;2023-04-25T12:56:32;8.63;;;4.87;;
31818;SDS011;18384;48.860;9.188;2023-04-25T12:58:59;8.48;;;5.47;;
31818;SDS011;18384;48.860;9.188;2023-04-25T13:01:25;13.20;;;5.85;;
31818;SDS011;18384;48.860;9.188;2023-04-25T13:06:18;7.50;;;5.07;;
31818;SDS011;18384;48.860;9.188;2023-04-25T13:08:45;10.48;;;5.78;;
31818;SDS011;18384;48.860;9.188;2023-04-25T13:11:11;12.95;;;6.60;;
31818;SDS011;18384;48.860;9.188;2023-04-25T13:13:39;12.63;;;6.50;;
31818;SDS011;18384;48.860;9.188;2023-04-25T13:18:32;10.02;;;5.50;;
31818;SDS011;18384;48.860;9.188;2023-04-25T13:20:59;9.60;;;6.40;;
31818;SDS011;18384;48.860;9.188;2023-04-25T13:23:26;13.48;;;7.15;;
31818;SDS011;18384;48.860;9.188;2023-04-25T13:25:53;15.65;;;7.57;;
31818;SDS011;18384;48.860;9.188;2023-04-25T13:28:20;11.43;;;7.68;;
31818;SDS011;18384;48.860;9.188;2023-04-25T13:33:13;14.95;;;7.95;;
31818;SDS011;18384;48.860;9.188;2023-04-25T13:35:40;16.92;;;8.23;;
31818;SDS011;18384;48.860;9.188;2023-04-25T13:38:07;18.20;;;9.55;;
31818;SDS011;18384;48.860;9.188;2023-04-25T13:43:00;17.60;;;8.82;;
31818;SDS011;18384;48.860;9.188;2023-04-25T13:45:27;19.05;;;8.68;;
31818;SDS011;18384;48.860;9.188;2023-04-25T13:47:53;14.55;;;8.15;;
31818;SDS011;18384;48.860;9.188;2023-04-25T13:50:19;13.35;;;6.78;;
31818;SDS011;18384;48.860;9.188;2023-04-25T13:52:46;10.98;;;7.12;;
31818;SDS011;18384;48.860;9.188;2023-04-25T13:55:12;14.68;;;7.37;;
31818;SDS011;18384;48.860;9.188;2023-04-25T13:57:38;13.75;;;7.82;;
31818;SDS011;18384;48.860;9.188;2023-04-25T14:00:05;15.00;;;7.82;;
31818;SDS011;18384;48.860;9.188;2023-04-25T14:02:37;14.18;;;6.87;;
31818;SDS011;18384;48.860;9.188;2023-04-25T14:05:04;12.45;;;6.80;;
31818;SDS011;18384;48.860;9.188;2023-04-25T14:07:31;11.35;;;6.82;;
31818;SDS011;18384;48.860;9.188;2023-04-25T14:09:58;10.00;;;6.57;;
31818;SDS011;18384;48.860;9.188;2023-04-25T14:12:24;11.90;;;6.22;;
31818;SDS011;18384;48.860;9.188;2023-04-25T14:14:50;12.48;;;6.57;;
31818;SDS011;18384;48.860;9.188;2023-04-25T14:17:17;10.63;;;6.07;;
31818;SDS011;18384;48.860;9.188;2023-04-25T14:19:44;12.88;;;5.82;;
31818;SDS011;18384;48.860;9.188;2023-04-25T14:22:10;7.12;;;5.50;;
31818;SDS011;18384;48.860;9.188;2023-04-25T14:24:37;11.82;;;6.03;;
31818;SDS011;18384;48.860;9.188;2023-04-25T14:27:03;9.55;;;5.37;;
31818;SDS011;18384;48.860;9.188;2023-04-25T14:29:29;12.25;;;5.47;;
31818;SDS011;18384;48.860;9.188;2023-04-25T14:31:56;11.05;;;5.40;;
31818;SDS011;18384;48.860;9.188;2023-04-25T14:34:23;12.57;;;5.35;;
31818;SDS011;18384;48.860;9.188;2023-04-25T14:36:50;18.77;;;5.80;;
31818;SDS011;18384;48.860;9.188;2023-04-25T14:39:17;9.25;;;5.50;;
31818;SDS011;18384;48.860;9.188;2023-04-25T14:44:09;11.85;;;6.03;;
31818;SDS011;18384;48.860;9.188;2023-04-25T14:46:36;9.90;;;5.65;;
31818;SDS011;18384;48.860;9.188;2023-04-25T14:51:28;13.80;;;6.10;;
31818;SDS011;18384;48.860;9.188;2023-04-25T14:53:56;8.77;;;4.78;;
31818;SDS011;18384;48.860;9.188;2023-04-25T14:56:23;11.25;;;5.82;;
31818;SDS011;18384;48.860;9.188;2023-04-25T14:58:49;15.05;;;6.05;;
31818;SDS011;18384;48.860;9.188;2023-04-25T15:01:15;9.43;;;5.78;;
31818;SDS011;18384;48.860;9.188;2023-04-25T15:03:41;15.02;;;7.25;;
31818;SDS011;18384;48.860;9.188;2023-04-25T15:06:07;9.55;;;5.78;;
31818;SDS011;18384;48.860;9.188;2023-04-25T15:08:33;10.93;;;5.32;;
31818;SDS011;18384;48.860;9.188;2023-04-25T15:11:00;8.55;;;4.45;;
31818;SDS011;18384;48.860;9.188;2023-04-25T15:13:28;9.70;;;4.07;;
31818;SDS011;18384;48.860;9.188;2023-04-25T15:18:21;10.93;;;5.35;;
31818;SDS011;18384;48.860;9.188;2023-04-25T15:20:48;6.90;;;4.50;;
31818;SDS011;18384;48.860;9.188;2023-04-25T15:23:16;12.15;;;4.00;;
31818;SDS011;18384;48.860;9.188;2023-04-25T15:25:43;11.18;;;4.62;;
31818;SDS011;18384;48.860;9.188;2023-04-25T15:28:09;12.13;;;4.87;;
31818;SDS011;18384;48.860;9.188;2023-04-25T15:30:36;9.52;;;4.60;;